Latest Weather Observations for Alva Beach

IDQ60801

Issued at 10:02 pm EST Saturday 28 March 2015 (issued every 30 minutes, with the page automatically refreshed every 10 minutes)

About weather observations | Map of weather stations | Latest weather observations for QLD | Other Formats
Station Details ID: 033295 Name: ALVA BEACH Lat: -19.46 Lon: 147.48 Height: 7.5 m
Data from the previous 72 hours. | See also: Recent months at Alva Beach
Date/Time
EST
Temp
°C
App
Temp
°C
Dew
Point
Rel
Hum
%
Delta-T
°C
Wind Press
QNH
hPa
Press
MSL
hPa
Rain
since 9 am
mm
Dir
 
Spd
km/h
Gust
km/h
Spd
kts
Gust
kts
28/10:00pm 27.6 27.0 21.2 68 4.2 E 26 37 14 20 1016.3 1016.3 0.0
28/09:30pm 27.5 26.3 20.1 64 4.8 E 26 35 14 19 1016.2 1016.2 0.0
28/09:00pm 27.7 26.0 20.5 65 4.7 E 30 41 16 22 1016.0 1016.0 0.0
28/08:30pm 27.7 26.1 20.8 66 4.6 E 30 39 16 21 1015.7 1015.7 0.0
28/08:00pm 27.7 26.0 20.5 65 4.7 E 30 41 16 22 1015.5 1015.5 0.0
28/07:30pm 27.9 26.9 21.2 67 4.5 E 28 43 15 23 1015.1 1015.1 0.0
28/07:00pm 28.1 26.8 21.4 67 4.5 E 30 43 16 23 1014.7 1014.7 0.0
28/06:30pm 28.1 27.2 21.4 67 4.5 E 28 39 15 21 1014.3 1014.3 0.0
28/06:00pm 28.4 27.8 21.9 68 4.4 E 28 39 15 21 1014.0 1014.0 0.0
28/05:30pm 28.3 26.5 20.3 62 5.3 E 30 41 16 22 1013.7 1013.7 0.0
28/05:00pm 28.6 27.3 20.6 62 5.3 E 28 37 15 20 1013.6 1013.6 0.0
28/04:30pm 29.0 27.9 21.0 62 5.3 E 28 37 15 20 1013.5 1013.5 0.0
28/04:00pm 29.2 28.0 20.1 58 6.0 E 26 37 14 20 1013.6 1013.6 0.0
28/03:30pm 29.6 28.3 19.9 56 6.4 E 26 35 14 19 1013.7 1013.7 0.0
28/03:00pm 29.6 27.2 19.0 53 6.9 E 30 39 16 21 1013.7 1013.7 0.0
28/02:30pm 30.2 28.7 20.2 55 6.6 ENE 28 37 15 20 1013.9 1013.9 0.0
28/02:00pm 30.0 29.9 20.0 55 6.6 E 20 30 11 16 1014.4 1014.4 0.0
28/01:30pm 31.3 31.7 19.9 50 7.5 ESE 17 24 9 13 1014.7 1014.7 0.0
28/01:00pm 30.4 29.8 18.5 49 7.7 ESE 19 26 10 14 1015.1 1015.1 0.0
28/12:30pm 30.9 31.1 20.2 53 7.1 ESE 19 28 10 15 1015.4 1015.4 0.0
28/12:00pm 31.1 32.2 20.4 53 7.1 ESE 15 26 8 14 1015.9 1015.9 0.0
28/11:30am 30.7 31.6 20.0 52 7.1 ESE 15 28 8 15 1016.4 1016.4 0.0
28/11:00am 31.1 32.8 21.0 55 6.7 ESE 13 28 7 15 1016.8 1016.8 0.0
28/10:30am 30.5 31.8 20.1 53 6.9 ESE 13 24 7 13 1017.1 1017.1 0.0
28/10:00am 29.8 30.7 20.1 56 6.4 ESE 15 22 8 12 1017.2 1017.2 0.0
28/09:30am 29.3 30.4 20.5 59 5.8 ESE 15 22 8 12 1017.3 1017.3 0.0
28/09:00am 28.7 29.9 20.7 62 5.3 SE 15 26 8 14 1017.2 1017.2 2.2
28/08:30am 27.4 29.9 21.0 68 4.2 S 9 17 5 9 1017.1 1017.1 2.2
28/08:00am 27.3 29.6 20.6 67 4.4 SSE 9 15 5 8 1016.8 1016.8 2.2
28/07:30am 26.3 29.2 20.6 71 3.7 SSE 6 9 3 5 1016.4 1016.4 2.2
28/07:00am 24.9 26.6 19.3 71 3.6 S 9 17 5 9 1016.0 1016.0 2.2
28/06:30am 26.6 27.2 19.5 65 4.6 ESE 15 20 8 11 1015.7 1015.7 2.2
28/06:00am 26.6 26.7 19.2 64 4.8 ESE 17 24 9 13 1015.3 1015.3 2.2
28/05:30am 26.8 27.0 19.4 64 4.8 E 17 24 9 13 1015.1 1015.1 2.2
28/05:00am 26.9 27.9 20.3 67 4.3 E 15 24 8 13 1014.9 1014.9 2.2
28/04:30am 27.0 27.5 20.1 66 4.5 E 17 24 9 13 1014.7 1014.7 2.2
28/04:00am 27.0 27.8 19.9 65 4.6 E 15 22 8 12 1014.4 1014.4 2.2
28/03:30am 26.8 27.5 19.7 65 4.6 E 15 24 8 13 1014.5 1014.5 2.2
28/03:00am 27.0 27.2 20.1 66 4.5 E 19 26 10 14 1014.5 1014.5 2.2
28/02:30am 26.9 27.0 20.0 66 4.5 E 19 28 10 15 1014.6 1014.6 2.2
28/02:00am 27.2 26.7 20.8 68 4.2 E 24 30 13 16 1014.5 1014.5 2.2
28/01:30am 27.3 27.4 21.1 69 4.1 E 22 30 12 16 1014.8 1014.8 2.2
28/01:00am 27.4 28.6 21.4 70 4.0 E 17 22 9 12 1015.1 1015.1 2.2
28/12:30am 27.3 27.8 21.1 69 4.1 E 20 26 11 14 1015.4 1015.4 2.2
 
Date/Time
EST
Temp
°C
App
Temp
°C
Dew
Point
Rel
Hum
%
Delta-T
°C
Wind Press
QNH
hPa
Press
MSL
hPa
Rain
since 9 am
mm
Dir
 
Spd
km/h
Gust
km/h
Spd
kts
Gust
kts
27/11:30pm 27.5 28.3 21.3 69 4.1 E 19 28 10 15 1015.7 1015.7 2.2
27/11:00pm 27.5 28.0 21.1 68 4.2 E 20 28 11 15 1015.8 1015.8 2.2
27/10:30pm 27.5 28.1 21.3 69 4.1 E 20 28 11 15 1016.0 1016.0 2.2
27/10:00pm 27.6 28.2 21.4 69 4.1 ENE 20 30 11 16 1016.1 1016.1 1.2
27/09:30pm 27.7 28.6 21.5 69 4.1 E 19 24 10 13 1016.1 1016.1 0.2
27/09:00pm 27.8 28.8 21.1 67 4.4 E 17 22 9 12 1015.9 1015.9 0.2
27/08:30pm 27.8 28.4 21.1 67 4.4 E 19 22 10 12 1015.6 1015.6 0.2
27/08:00pm 27.9 29.1 21.4 67 4.3 ENE 17 22 9 12 1015.3 1015.3 0.2
27/07:30pm 27.9 29.2 21.7 69 4.2 ENE 17 20 9 11 1015.0 1015.0 0.2
27/07:00pm 28.0 28.8 21.8 69 4.2 ENE 20 26 11 14 1014.6 1014.6 0.2
27/06:30pm 28.0 28.1 21.1 66 4.6 ENE 22 26 12 14 1014.4 1014.4 0.2
27/06:00pm 28.1 28.0 21.4 67 4.5 ENE 24 30 13 16 1014.0 1014.0 0.2
27/05:30pm 28.6 28.8 21.4 65 4.8 ENE 22 26 12 14 1014.1 1014.1 0.2
27/05:00pm 28.8 29.1 21.6 65 4.8 ENE 22 32 12 17 1014.0 1014.0 0.2
27/04:30pm 29.2 29.4 21.4 63 5.2 ENE 22 28 12 15 1013.7 1013.7 0.2
27/04:00pm 29.4 29.9 22.6 67 4.6 ENE 24 28 13 15 1013.5 1013.5 0.2
27/03:30pm 29.5 30.3 22.5 66 4.8 ENE 22 26 12 14 1013.4 1013.4 0.2
27/03:00pm 29.7 29.7 22.4 65 5.0 ENE 26 30 14 16 1013.4 1013.4 0.2
27/02:30pm 29.6 29.2 22.3 65 4.9 ENE 28 30 15 16 1013.6 1013.6 0.2
27/02:00pm 30.4 30.9 22.0 60 5.7 ENE 22 30 12 16 1013.9 1013.9 0.2
27/01:30pm 30.4 30.7 21.5 59 6.0 E 22 30 12 16 1014.3 1014.3 0.2
27/01:00pm 30.7 31.6 22.0 59 5.9 E 20 30 11 16 1014.8 1014.8 0.2
27/12:30pm 30.9 31.9 22.2 59 5.9 E 20 28 11 15 1015.1 1015.1 0.2
27/12:00pm 30.4 31.1 21.5 59 6.0 E 20 26 11 14 1015.7 1015.7 0.2
27/11:30am 30.3 31.1 21.7 60 5.8 E 20 28 11 15 1016.2 1016.2 0.2
27/11:00am 29.0 30.7 21.7 64 4.9 E 15 20 8 11 1016.8 1016.8 0.2
27/10:30am 30.1 31.3 20.6 56 6.3 E 15 20 8 11 1017.0 1017.0 0.2
27/10:00am 30.8 33.3 22.4 61 5.7 ESE 13 19 7 10 1017.3 1017.3 0.2
27/09:30am 29.6 31.0 21.8 63 5.3 E 17 22 9 12 1017.4 1017.4 0.0
27/09:00am 29.3 30.2 21.5 63 5.2 E 19 24 10 13 1017.3 1017.3 3.0
27/08:30am 29.5 30.8 21.7 63 5.2 E 17 22 9 12 1017.0 1017.0 3.0
27/08:00am 28.6 29.9 21.6 66 4.7 E 17 22 9 12 1016.8 1016.8 3.0
27/07:30am 28.3 29.6 21.6 67 4.5 E 17 24 9 13 1016.4 1016.4 3.0
27/07:00am 27.9 29.6 21.7 69 4.1 E 15 20 8 11 1016.0 1016.0 3.0
27/06:30am 27.3 27.9 21.1 69 4.1 E 19 26 10 14 1015.7 1015.7 3.0
27/06:00am 27.2 28.4 21.5 71 3.8 E 17 22 9 12 1015.6 1015.6 3.0
27/05:30am 26.6 28.2 22.2 77 3.0 E 17 24 9 13 1015.5 1015.5 3.0
27/05:00am 24.1 27.5 22.0 88 1.4 SSW 7 11 4 6 1015.3 1015.3 3.0
27/04:30am 24.1 27.5 22.0 88 1.4 SSW 7 9 4 5 1015.1 1015.1 3.0
27/04:00am 24.5 27.1 20.4 78 2.7 SSW 7 13 4 7 1015.0 1015.0 3.0
27/03:30am 24.6 26.7 20.1 76 2.9 SSW 9 13 5 7 1014.8 1014.8 3.0
27/03:00am 25.7 27.9 20.3 72 3.5 SSE 9 17 5 9 1014.9 1014.9 3.0
27/02:30am 27.0 28.7 21.7 73 3.5 ESE 15 24 8 13 1015.0 1015.0 3.0
27/02:00am 27.2 28.9 21.7 72 3.7 E 15 24 8 13 1015.4 1015.4 3.0
27/01:30am 27.2 29.2 21.5 71 3.8 E 13 20 7 11 1015.6 1015.6 3.0
27/01:00am 27.5 29.3 21.8 71 3.8 E 15 22 8 12 1015.7 1015.7 3.0
27/12:30am 27.4 29.3 21.4 70 4.0 E 13 20 7 11 1016.0 1016.0 3.0
27/12:00am 27.5 28.4 21.5 70 4.0 E 19 24 10 13 1016.0 1016.0 3.0
 
Date/Time
EST
Temp
°C
App
Temp
°C
Dew
Point
Rel
Hum
%
Delta-T
°C
Wind Press
QNH
hPa
Press
MSL
hPa
Rain
since 9 am
mm
Dir
 
Spd
km/h
Gust
km/h
Spd
kts
Gust
kts
26/11:30pm 27.6 28.3 21.6 70 4.0 E 20 28 11 15 1016.0 1016.0 3.0
26/11:00pm 27.6 28.3 21.6 70 4.0 E 20 28 11 15 1016.0 1016.0 3.0
26/10:30pm 27.6 28.3 21.6 70 4.0 ENE 20 28 11 15 1016.2 1016.2 3.0
26/10:00pm 27.6 28.8 21.4 69 4.1 ENE 17 24 9 13 1016.3 1016.3 1.6
26/09:30pm 27.7 28.3 21.3 68 4.3 ENE 20 26 11 14 1016.2 1016.2 1.2
26/09:00pm 27.8 28.0 20.6 65 4.7 ENE 20 28 11 15 1016.1 1016.1 0.0
26/08:30pm 28.0 28.2 21.3 67 4.5 ENE 22 28 12 15 1016.0 1016.0 0.0
26/08:00pm 28.0 27.7 21.1 66 4.6 ENE 24 30 13 16 1015.8 1015.8 0.0
26/07:30pm 28.0 27.3 20.3 63 5.1 ENE 24 30 13 16 1015.4 1015.4 0.0
26/07:00pm 28.1 27.8 20.4 63 5.1 ENE 22 28 12 15 1015.1 1015.1 0.0
26/06:30pm 28.1 27.9 20.6 63 4.9 ENE 22 26 12 14 1014.7 1014.7 0.0
26/06:00pm 28.1 28.8 21.6 68 4.3 ENE 20 28 11 15 1014.4 1014.4 0.0
26/05:30pm 28.4 28.4 20.9 64 5.0 ENE 22 28 12 15 1014.2 1014.2 0.0
26/05:00pm 28.9 28.5 20.1 59 5.8 ENE 22 26 12 14 1013.9 1013.9 0.0
26/04:30pm 29.1 29.0 20.8 61 5.5 NE 22 26 12 14 1013.6 1013.6 0.0
26/04:00pm 29.2 28.9 20.4 59 5.8 ENE 22 26 12 14 1013.6 1013.6 0.0
26/03:30pm 29.6 29.5 19.9 56 6.4 ENE 20 26 11 14 1013.7 1013.7 0.0
26/03:00pm 30.4 30.5 20.0 53 6.8 E 19 24 10 13 1013.8 1013.8 0.0
26/02:30pm 30.3 30.6 19.6 52 7.0 E 17 24 9 13 1014.0 1014.0 0.0
26/02:00pm 30.3 30.2 18.7 50 7.5 E 17 22 9 12 1014.3 1014.3 0.0
26/01:30pm 30.3 31.2 19.3 51 7.2 E 13 19 7 10 1014.5 1014.5 0.0
26/01:00pm 30.8 32.4 20.7 55 6.7 E 13 19 7 10 1014.8 1014.8 0.0
26/12:30pm 30.3 31.6 20.2 54 6.7 E 13 19 7 10 1015.3 1015.3 0.0
26/12:00pm 30.5 32.2 20.1 53 6.9 E 11 17 6 9 1015.7 1015.7 0.0
26/11:30am 30.2 31.4 19.9 54 6.8 E 13 19 7 10 1016.1 1016.1 0.0
26/11:00am 30.1 31.6 19.8 54 6.8 E 11 15 6 8 1016.5 1016.5 0.0
26/10:30am 30.4 32.5 20.9 57 6.3 E 11 15 6 8 1016.7 1016.7 0.0
26/10:00am 29.6 31.2 19.9 56 6.4 ENE 11 15 6 8 1016.9 1016.9 0.0
26/09:30am 29.0 31.3 20.7 61 5.5 E 9 13 5 7 1016.9 1016.9 0.0
26/09:00am 29.3 30.6 20.2 58 6.0 ENE 13 17 7 9 1016.7 1016.7 0.0
26/08:30am 28.8 30.5 21.0 62 5.2 ENE 13 17 7 9 1016.4 1016.4 0.0
26/08:00am 28.6 30.3 20.1 60 5.6 ENE 11 15 6 8 1016.0 1016.0 0.0
26/07:30am 28.5 30.2 20.2 60 5.5 ENE 11 13 6 7 1015.8 1015.8 0.0
26/07:00am 27.4 30.1 20.7 67 4.4 ENE 7 13 4 7 1015.7 1015.7 0.0
26/06:30am 27.0 28.9 21.3 71 3.8 ENE 13 19 7 10 1015.4 1015.4 0.0
26/06:00am 26.8 29.1 21.3 72 3.6 ENE 11 15 6 8 1015.2 1015.2 0.0
26/05:30am 26.1 28.4 20.7 72 3.5 ENE 9 13 5 7 1015.0 1015.0 0.0
26/05:00am 27.0 29.3 21.3 71 3.8 NE 11 13 6 7 1014.6 1014.6 0.0
26/04:30am 27.0 29.9 21.1 70 3.9 NE 7 11 4 6 1014.5 1014.5 0.0
26/04:00am 27.1 29.4 21.4 71 3.8 NE 11 13 6 7 1014.4 1014.4 0.0
26/03:30am 27.0 28.8 21.1 70 3.9 NE 13 15 7 8 1014.2 1014.2 0.0
26/03:00am 27.2 28.7 21.2 69 4.0 NE 15 17 8 9 1014.3 1014.3 0.0
26/02:30am 27.3 28.8 21.3 69 4.0 NE 15 17 8 9 - - 0.0
26/02:00am 27.4 28.6 21.4 70 4.0 ENE 17 20 9 11 1014.6 1014.6 0.0
26/01:30am 27.2 28.5 20.8 68 4.2 ENE 15 19 8 10 1014.7 1014.7 0.0
26/01:00am 27.3 28.7 21.1 69 4.1 ENE 15 19 8 10 1015.1 1015.1 0.0
26/12:30am 27.3 29.1 21.1 69 4.1 ENE 13 17 7 9 1015.2 1015.2 0.0
26/12:00am 27.3 28.8 21.3 69 4.0 ENE 15 19 8 10 1015.4 1015.4 0.0
 
Date/Time
EST
Temp
°C
App
Temp
°C
Dew
Point
Rel
Hum
%
Delta-T
°C
Wind Press
QNH
hPa
Press
MSL
hPa
Rain
since 9 am
mm
Dir
 
Spd
km/h
Gust
km/h
Spd
kts
Gust
kts
25/11:30pm 27.2 29.6 21.5 71 3.8 ENE 11 15 6 8 1015.6 1015.6 0.0
25/11:00pm 27.4 29.3 21.4 70 4.0 ENE 13 19 7 10 1015.7 1015.7 0.0
25/10:30pm 27.3 29.2 21.3 69 4.0 ENE 13 17 7 9 1015.9 1015.9 0.0

Other Formats:

Comma delimited format used in spreadsheet applications
http://www.bom.gov.au/fwo/IDQ60801/IDQ60801.95296.axf

JavaScript Object Notation format (JSON) in row-major order
http://www.bom.gov.au/fwo/IDQ60801/IDQ60801.95296.json